Time;durP1;ratioP1;P1;durP2;ratioP2;P2;SDS_P1;SDS_P2;PMS_P1;PMS_P2;Temp;Humidity;BMP_temperature;BMP_pressure;BME280_temperature;BME280_humidity;BME280_pressure;Samples;Min_cycle;Max_cycle;Signal;HPM_P1;HPM_P2
2023/10/13 00:00:36;;;;;;;17.10;8.83;;;17.30;1.00;;;;;;7373464;19;20007;-69
2023/10/13 00:03:14;;;;;;;15.57;9.30;;;17.40;1.00;;;;;;7369481;19;20780;-70
2023/10/13 00:05:52;;;;;;;16.77;9.98;;;17.40;1.00;;;;;;7374921;19;20014;-71
2023/10/13 00:08:23;;;;;;;15.63;10.00;;;17.40;1.00;;;;;;7379150;19;20010;-70
2023/10/13 00:10:57;;;;;;;16.05;9.27;;;17.40;1.00;;;;;;7381301;19;20034;-71
2023/10/13 00:13:31;;;;;;;17.88;9.35;;;17.30;1.00;;;;;;7396411;19;20014;-70
2023/10/13 00:16:03;;;;;;;17.85;9.35;;;17.30;1.00;;;;;;7380628;19;20014;-71
2023/10/13 00:18:41;;;;;;;14.30;9.07;;;17.30;1.00;;;;;;7379960;19;20006;-70
2023/10/13 00:21:20;;;;;;;17.10;8.60;;;17.30;1.00;;;;;;7373239;19;20007;-70
2023/10/13 00:23:55;;;;;;;18.23;9.10;;;17.20;1.00;;;;;;7377792;19;20010;-70
2023/10/13 00:26:27;;;;;;;13.27;8.73;;;17.20;1.00;;;;;;7376932;19;20573;-70
2023/10/13 00:29:08;;;;;;;13.23;8.13;;;17.20;1.00;;;;;;7379040;19;20041;-70
2023/10/13 00:31:42;;;;;;;14.73;8.80;;;17.10;1.00;;;;;;7375251;19;20025;-69
2023/10/13 00:34:25;;;;;;;18.13;9.43;;;17.00;1.00;;;;;;7375752;19;20006;-71
2023/10/13 00:39:44;;;;;;;14.90;8.98;;;16.90;1.00;;;;;;7374950;19;20018;-69
2023/10/13 00:42:25;;;;;;;12.98;8.60;;;16.80;1.00;;;;;;7376869;19;20020;-71
2023/10/13 00:44:54;;;;;;;17.88;8.77;;;16.80;1.00;;;;;;7377605;19;20118;-70
2023/10/13 00:47:37;;;;;;;17.13;8.88;;;16.70;1.00;;;;;;7376553;19;20022;-70
2023/10/13 00:50:10;;;;;;;13.10;8.32;;;16.70;1.00;;;;;;7378014;19;20081;-71
2023/10/13 00:52:46;;;;;;;13.40;8.05;;;16.70;1.00;;;;;;7377437;19;20019;-71
2023/10/13 00:55:17;;;;;;;9.57;7.53;;;16.70;1.00;;;;;;7377967;19;20518;-71
2023/10/13 00:57:46;;;;;;;15.57;7.85;;;16.70;1.00;;;;;;7375801;19;20011;-70
2023/10/13 01:00:24;;;;;;;16.52;7.75;;;16.60;1.00;;;;;;7377189;19;20039;-70
2023/10/13 01:02:55;;;;;;;13.07;7.30;;;16.60;1.00;;;;;;7378374;19;20090;-70
2023/10/13 01:05:27;;;;;;;11.98;7.03;;;16.70;1.00;;;;;;7376247;19;20051;-70
2023/10/13 01:08:01;;;;;;;14.85;7.25;;;16.70;1.00;;;;;;7374632;19;20011;-70
2023/10/13 01:10:32;;;;;;;15.37;7.33;;;16.70;1.00;;;;;;7376869;19;20014;-70
2023/10/13 01:13:02;;;;;;;14.45;7.90;;;16.70;1.00;;;;;;7375740;19;20068;-70
2023/10/13 01:15:33;;;;;;;10.57;6.93;;;16.60;1.00;;;;;;7372593;19;20014;-70
2023/10/13 01:18:11;;;;;;;21.02;7.35;;;16.50;1.00;;;;;;7374938;19;20024;-70
2023/10/13 01:20:45;;;;;;;15.80;6.47;;;16.50;1.00;;;;;;7373543;19;20385;-70
2023/10/13 01:23:18;;;;;;;10.30;6.55;;;16.50;1.00;;;;;;7376336;19;20482;-70
2023/10/13 01:25:48;;;;;;;11.70;7.22;;;16.50;1.00;;;;;;7375844;19;20362;-70
2023/10/13 01:28:16;;;;;;;20.17;7.03;;;16.50;1.00;;;;;;7375457;19;20006;-70
2023/10/13 01:30:49;;;;;;;12.95;6.80;;;16.40;1.00;;;;;;7376406;19;20015;-70
2023/10/13 01:33:25;;;;;;;11.10;6.32;;;16.40;1.00;;;;;;7375772;19;20035;-70
2023/10/13 01:35:58;;;;;;;16.13;7.68;;;16.40;1.00;;;;;;7375486;19;20070;-70
2023/10/13 01:38:33;;;;;;;14.80;7.72;;;16.30;1.00;;;;;;7375757;19;20017;-70
2023/10/13 01:41:04;;;;;;;9.90;6.47;;;16.20;1.00;;;;;;7375208;19;20014;-70
2023/10/13 01:43:32;;;;;;;9.52;6.70;;;16.30;1.00;;;;;;7374435;19;20010;-75
2023/10/13 01:46:03;;;;;;;9.32;6.70;;;16.40;1.00;;;;;;7375955;19;20007;-70
2023/10/13 01:48:32;;;;;;;11.05;6.70;;;16.30;1.00;;;;;;7375945;19;20018;-70
2023/10/13 01:51:05;;;;;;;10.65;6.40;;;16.40;1.00;;;;;;7376965;19;20006;-70
2023/10/13 01:53:36;;;;;;;12.38;6.10;;;16.40;1.00;;;;;;7374653;19;20070;-70
2023/10/13 01:56:10;;;;;;;10.98;6.18;;;16.30;1.00;;;;;;7374047;19;20014;-70
2023/10/13 01:58:41;;;;;;;13.10;6.30;;;16.40;1.00;;;;;;7375814;19;20006;-70
2023/10/13 02:01:13;;;;;;;9.52;5.90;;;16.30;1.00;;;;;;7375367;19;20018;-71
2023/10/13 02:03:46;;;;;;;10.23;5.53;;;16.20;1.00;;;;;;7374820;19;20066;-71
2023/10/13 02:06:17;;;;;;;12.02;6.43;;;16.30;1.00;;;;;;7373139;19;20514;-71
2023/10/13 02:08:51;;;;;;;10.65;5.90;;;16.20;1.00;;;;;;7375481;19;20082;-71
2023/10/13 02:11:21;;;;;;;8.43;5.22;;;16.20;1.00;;;;;;7373906;19;20006;-71
2023/10/13 02:13:51;;;;;;;12.32;6.05;;;16.20;1.00;;;;;;7372309;19;20011;-70
2023/10/13 02:16:21;;;;;;;11.75;5.80;;;16.20;1.00;;;;;;7373071;19;20014;-70
2023/10/13 02:18:52;;;;;;;9.38;5.43;;;16.30;1.00;;;;;;7373039;19;20403;-70
2023/10/13 02:21:22;;;;;;;8.43;5.25;;;16.20;1.00;;;;;;7374368;19;20030;-70
2023/10/13 02:23:59;;;;;;;13.80;6.00;;;16.20;1.00;;;;;;7374517;19;20010;-71
2023/10/13 02:26:38;;;;;;;11.80;5.70;;;16.20;1.00;;;;;;7373854;19;21457;-71
2023/10/13 02:29:12;;;;;;;8.55;5.30;;;16.20;1.00;;;;;;7368268;19;20014;-70
2023/10/13 02:31:42;;;;;;;7.75;4.93;;;16.30;1.00;;;;;;7373835;19;20010;-70
2023/10/13 02:34:13;;;;;;;10.07;5.50;;;16.20;1.00;;;;;;7374502;19;20069;-70
2023/10/13 02:36:48;;;;;;;10.45;4.95;;;16.20;1.00;;;;;;7371563;19;20706;-71
2023/10/13 02:39:25;;;;;;;11.68;4.95;;;16.30;1.00;;;;;;7373619;19;20006;-70
2023/10/13 02:41:55;;;;;;;10.55;4.90;;;16.30;1.00;;;;;;7374159;19;20022;-70
2023/10/13 02:44:31;;;;;;;9.20;4.00;;;16.20;1.00;;;;;;7371955;19;20029;-71
2023/10/13 02:46:59;;;;;;;7.55;4.07;;;16.20;1.00;;;;;;7372190;19;20010;-70
2023/10/13 02:49:33;;;;;;;10.38;4.65;;;16.30;1.00;;;;;;7373373;19;20048;-70
2023/10/13 02:52:07;;;;;;;6.80;3.85;;;16.30;1.00;;;;;;7373584;19;20123;-71
2023/10/13 02:54:46;;;;;;;8.23;4.10;;;16.40;1.00;;;;;;7371652;19;20014;-70
2023/10/13 02:57:15;;;;;;;12.43;4.22;;;16.50;1.00;;;;;;7371415;19;20027;-70
2023/10/13 02:59:55;;;;;;;8.32;4.00;;;16.50;1.00;;;;;;7373178;19;20010;-70
2023/10/13 03:02:25;;;;;;;9.95;4.05;;;16.50;1.00;;;;;;7373581;19;20590;-70
2023/10/13 03:04:59;;;;;;;8.75;4.15;;;16.40;1.00;;;;;;7373156;19;20612;-70
2023/10/13 03:07:28;;;;;;;7.65;4.13;;;16.40;1.00;;;;;;7369567;19;20007;-70
2023/10/13 03:10:09;;;;;;;9.90;4.25;;;16.40;1.00;;;;;;7372117;19;20144;-70
2023/10/13 03:12:38;;;;;;;13.60;4.30;;;16.50;1.00;;;;;;7370348;19;20709;-70
2023/10/13 03:15:19;;;;;;;9.95;3.92;;;16.30;1.00;;;;;;7372389;19;20085;-70
2023/10/13 03:17:47;;;;;;;6.40;3.88;;;16.40;1.00;;;;;;7370796;19;20088;-70
2023/10/13 03:20:22;;;;;;;8.55;4.10;;;16.40;1.00;;;;;;7372542;19;20335;-70
2023/10/13 03:22:53;;;;;;;15.23;4.55;;;16.40;1.00;;;;;;7372062;19;20349;-70
2023/10/13 03:25:29;;;;;;;8.35;4.32;;;16.40;1.00;;;;;;7372201;19;20013;-69
2023/10/13 03:28:07;;;;;;;7.78;4.40;;;16.40;1.00;;;;;;7370502;19;20014;-70
2023/10/13 03:30:35;;;;;;;7.00;4.60;;;16.30;1.00;;;;;;7369754;19;20006;-70
2023/10/13 03:33:11;;;;;;;13.20;4.80;;;16.30;1.00;;;;;;7371079;19;20021;-70
2023/10/13 03:35:45;;;;;;;10.52;5.40;;;16.30;1.00;;;;;;7370372;19;20022;-70
2023/10/13 03:38:19;;;;;;;9.70;4.13;;;16.40;1.00;;;;;;7371347;19;20109;-71
2023/10/13 03:41:08;;;;;;;7.45;4.63;;;16.40;1.00;;;;;;7378172;19;20015;-71
2023/10/13 03:43:44;;;;;;;10.95;5.15;;;16.30;1.00;;;;;;7375139;19;20006;-70
2023/10/13 03:46:21;;;;;;;11.05;4.63;;;16.20;1.00;;;;;;7376944;19;20432;-70
2023/10/13 03:49:01;;;;;;;8.40;4.63;;;16.20;1.00;;;;;;7380144;19;20031;-70
2023/10/13 03:51:33;;;;;;;13.55;4.90;;;16.10;1.00;;;;;;7399244;19;20394;-70
2023/10/13 03:54:07;;;;;;;7.80;4.85;;;16.20;1.00;;;;;;7380253;19;20022;-70
2023/10/13 03:56:46;;;;;;;8.23;4.72;;;16.20;1.00;;;;;;7374971;19;20007;-70
2023/10/13 03:59:22;;;;;;;10.40;4.53;;;16.10;1.00;;;;;;7379457;19;20077;-70
2023/10/13 04:02:02;;;;;;;13.70;4.88;;;16.00;1.00;;;;;;7377638;19;20035;-70
2023/10/13 04:04:42;;;;;;;7.70;4.82;;;16.10;1.00;;;;;;7378836;19;20010;-70
2023/10/13 04:15:23;;;;;;;9.40;4.45;;;15.90;1.00;;;;;;7376493;19;20035;-70
2023/10/13 04:17:53;;;;;;;9.70;4.43;;;15.90;1.00;;;;;;7376604;19;20085;-70
2023/10/13 04:20:29;;;;;;;9.02;3.80;;;15.70;1.00;;;;;;7379872;19;20031;-70
2023/10/13 04:28:50;;;;;;;6.68;4.47;;;15.60;1.00;;;;;;7378477;19;20006;-70
2023/10/13 04:34:27;;;;;;;8.70;4.68;;;15.60;1.00;;;;;;7375442;19;20381;-70
2023/10/13 04:37:22;;;;;;;10.05;4.28;;;15.60;1.00;;;;;;7374907;19;20012;-70
2023/10/13 04:39:57;;;;;;;9.65;4.15;;;15.60;1.00;;;;;;6868473;19;2004955;-70
2023/10/13 04:42:39;;;;;;;7.90;4.97;;;15.60;1.00;;;;;;7378839;19;20030;-70
2023/10/13 04:45:38;;;;;;;9.13;4.45;;;15.50;1.00;;;;;;7374570;19;20467;-69
2023/10/13 04:48:27;;;;;;;11.73;4.47;;;15.60;1.00;;;;;;7375495;19;20010;-70
2023/10/13 04:54:11;;;;;;;7.05;4.18;;;15.50;1.00;;;;;;6867010;19;2004757;-70
2023/10/13 05:00:43;;;;;;;12.35;6.13;;;15.60;1.00;;;;;;7378158;19;20025;-70
2023/10/13 05:02:43;;;;;;;10.05;5.13;;;15.70;1.00;;;;;;6866762;19;2004761;-70
2023/10/13 05:05:45;;;;;;;11.23;5.57;;;15.70;1.00;;;;;;7375290;19;20010;-70
2023/10/13 05:49:40;;;;;;;12.73;4.85;;;16.00;1.00;;;;;;7372762;19;20010;-71
2023/10/13 05:52:19;;;;;;;7.65;4.93;;;16.10;1.00;;;;;;7374061;19;20349;-69
2023/10/13 06:30:17;;;;;;;14.27;6.03;;;16.90;1.00;;;;;;6863771;19;2004670;-70
2023/10/13 06:32:47;;;;;;;10.20;5.78;;;17.00;1.00;;;;;;7374974;19;20014;-69
2023/10/13 06:35:22;;;;;;;10.52;6.32;;;17.00;1.00;;;;;;7373785;19;20032;-70
2023/10/13 06:37:53;;;;;;;13.70;6.82;;;17.00;1.00;;;;;;7372503;19;20026;-70
2023/10/13 06:40:33;;;;;;;10.30;5.88;;;17.00;1.00;;;;;;7373964;19;20012;-70
2023/10/13 06:43:16;;;;;;;12.25;6.80;;;17.00;1.00;;;;;;7368684;19;20017;-69
2023/10/13 06:45:50;;;;;;;14.43;6.50;;;17.00;1.00;;;;;;6860440;19;2005255;-70
2023/10/13 06:48:21;;;;;;;20.90;5.68;;;17.10;1.00;;;;;;7372357;19;20043;-70
2023/10/13 06:50:52;;;;;;;12.43;6.03;;;17.10;1.00;;;;;;7371251;19;20010;-70
2023/10/13 06:53:22;;;;;;;16.38;6.85;;;17.20;1.00;;;;;;7372098;19;20011;-70
2023/10/13 06:55:58;;;;;;;11.90;5.93;;;17.20;1.00;;;;;;7371606;19;20473;-70
2023/10/13 06:58:29;;;;;;;16.25;6.35;;;17.30;1.00;;;;;;7371132;19;20010;-70
2023/10/13 07:00:59;;;;;;;16.95;6.95;;;17.30;1.00;;;;;;7372985;19;20018;-70
2023/10/13 07:03:29;;;;;;;17.08;7.22;;;17.30;1.00;;;;;;7371893;19;20010;-70
2023/10/13 07:05:59;;;;;;;17.70;6.70;;;17.30;1.00;;;;;;7370795;19;20010;-70
2023/10/13 07:08:31;;;;;;;20.30;7.07;;;17.40;1.00;;;;;;7372565;19;20696;-70
2023/10/13 07:11:08;;;;;;;12.88;6.40;;;17.40;1.00;;;;;;7373527;19;20007;-70
2023/10/13 07:13:38;;;;;;;14.07;6.07;;;17.50;1.00;;;;;;7365692;19;20784;-70
2023/10/13 07:16:12;;;;;;;12.32;6.65;;;17.50;1.00;;;;;;7370617;19;20031;-70
2023/10/13 07:19:04;;;;;;;13.90;6.50;;;17.60;1.00;;;;;;7374275;19;20018;-70
2023/10/13 07:21:45;;;;;;;16.15;6.57;;;17.60;1.00;;;;;;7369460;19;20003;-71
2023/10/13 07:24:16;;;;;;;12.98;6.72;;;17.70;1.00;;;;;;7371644;19;20010;-71
2023/10/13 07:26:57;;;;;;;11.80;6.03;;;17.70;1.00;;;;;;7378075;19;20018;-71
2023/10/13 07:29:27;;;;;;;12.77;6.60;;;17.70;1.00;;;;;;7378870;19;20412;-70
2023/10/13 07:31:58;;;;;;;12.65;6.43;;;17.90;1.00;;;;;;7374464;19;20040;-70
2023/10/13 07:34:31;;;;;;;11.55;6.20;;;18.00;1.00;;;;;;7373347;19;20064;-70
2023/10/13 07:37:07;;;;;;;10.85;6.15;;;18.00;1.00;;;;;;7371527;19;20006;-70
2023/10/13 07:39:40;;;;;;;11.35;5.45;;;18.10;1.00;;;;;;7372303;19;20370;-71
2023/10/13 07:42:19;;;;;;;10.48;5.80;;;18.20;1.00;;;;;;7372895;19;20501;-70
2023/10/13 07:44:49;;;;;;;12.07;6.17;;;18.30;1.00;;;;;;7368914;19;20081;-71
2023/10/13 07:47:20;;;;;;;15.18;6.18;;;18.40;1.00;;;;;;7369756;19;20275;-72
2023/10/13 07:49:50;;;;;;;17.25;5.75;;;18.50;1.00;;;;;;7371271;19;20010;-70
2023/10/13 07:52:35;;;;;;;12.70;5.70;;;18.50;1.00;;;;;;7372340;19;20102;-71
2023/10/13 07:55:18;;;;;;;10.05;5.40;;;18.70;1.00;;;;;;7371389;19;20007;-71
2023/10/13 07:57:56;;;;;;;11.48;5.47;;;18.90;1.00;;;;;;6859547;19;2004729;-71
2023/10/13 08:00:46;;;;;;;10.68;5.70;;;19.00;1.00;;;;;;7371832;19;20010;-71
2023/10/13 08:06:04;;;;;;;11.70;5.07;;;19.20;1.00;;;;;;7369592;19;20413;-71
2023/10/13 08:08:40;;;;;;;11.70;4.82;;;19.20;1.00;;;;;;7369137;19;20007;-71
2023/10/13 08:11:24;;;;;;;15.57;5.90;;;19.30;1.00;;;;;;7370717;19;20015;-70
2023/10/13 08:13:59;;;;;;;13.13;5.43;;;19.40;1.00;;;;;;7367515;19;20442;-70
2023/10/13 08:19:27;;;;;;;9.05;5.13;;;19.60;1.00;;;;;;7370293;19;20011;-71
2023/10/13 08:22:23;;;;;;;15.27;5.90;;;19.70;1.00;;;;;;7371852;19;20026;-70
2023/10/13 08:25:15;;;;;;;13.43;4.93;;;19.90;1.00;;;;;;6860717;19;2004786;-70
2023/10/13 08:27:49;;;;;;;14.18;5.20;;;20.00;1.00;;;;;;7373627;19;20264;-70
2023/10/13 08:30:36;;;;;;;10.93;4.93;;;20.10;1.00;;;;;;7377882;19;20011;-70
2023/10/13 08:33:16;;;;;;;14.80;5.50;;;20.20;1.00;;;;;;7379053;19;20011;-70
2023/10/13 08:36:17;;;;;;;14.27;5.45;;;20.30;1.00;;;;;;7378072;19;20036;-70
2023/10/13 08:38:55;;;;;;;13.30;5.22;;;20.30;1.00;;;;;;7376841;19;20090;-70
2023/10/13 08:41:29;;;;;;;12.80;5.28;;;20.60;1.00;;;;;;7377850;19;20063;-70
2023/10/13 08:44:09;;;;;;;15.00;5.65;;;20.80;1.00;;;;;;7374250;19;20011;-70
2023/10/13 08:47:03;;;;;;;10.75;5.10;;;20.90;1.00;;;;;;7372603;19;20014;-70
2023/10/13 08:49:40;;;;;;;11.20;4.53;;;21.10;1.00;;;;;;7378442;19;20015;-71
2023/10/13 08:55:26;;;;;;;9.60;4.55;;;21.30;1.00;;;;;;7375657;19;20014;-71
2023/10/13 08:57:53;;;;;;;9.90;4.68;;;21.50;1.00;;;;;;6861970;19;2004797;-70
2023/10/13 09:00:55;;;;;;;8.95;4.10;;;21.70;1.00;;;;;;7377202;19;20494;-70
2023/10/13 09:03:29;;;;;;;9.60;4.07;;;21.80;1.00;;;;;;6864391;19;2005346;-71
2023/10/13 09:06:06;;;;;;;12.90;4.05;;;21.90;1.00;;;;;;7376409;19;20786;-70
2023/10/13 09:09:04;;;;;;;10.48;4.03;;;22.10;1.00;;;;;;7376899;19;20006;-71
2023/10/13 09:11:48;;;;;;;12.27;4.20;;;22.10;1.00;;;;;;6868063;19;2003801;-71
2023/10/13 09:17:11;;;;;;;11.93;4.07;;;22.20;1.00;;;;;;7373737;19;20149;-71
2023/10/13 09:19:58;;;;;;;16.25;4.68;;;22.30;1.00;;;;;;7373534;19;20010;-71
2023/10/13 09:22:27;;;;;;;9.88;4.03;;;22.40;1.00;;;;;;7376468;19;20077;-71
2023/10/13 09:25:00;;;;;;;9.77;3.80;;;22.60;1.00;;;;;;7376145;19;24957;-71
2023/10/13 09:27:30;;;;;;;12.55;4.43;;;22.90;1.00;;;;;;7374407;19;20510;-70
2023/10/13 09:30:06;;;;;;;11.68;4.43;;;22.90;1.00;;;;;;7374463;19;20011;-71
2023/10/13 09:32:45;;;;;;;6.78;3.47;;;23.10;1.00;;;;;;7377931;19;20010;-71
2023/10/13 09:35:22;;;;;;;10.25;3.78;;;23.20;1.00;;;;;;7374236;19;20003;-70
2023/10/13 09:37:51;;;;;;;11.35;3.63;;;23.30;1.00;;;;;;7370887;19;20006;-70
2023/10/13 09:40:38;;;;;;;13.27;3.80;;;23.40;1.00;;;;;;7374685;19;20531;-71
2023/10/13 09:43:07;;;;;;;9.95;3.97;;;23.70;1.00;;;;;;7371601;19;20011;-70
2023/10/13 09:45:40;;;;;;;8.70;2.92;;;23.90;1.00;;;;;;7377050;19;20006;-71
2023/10/13 09:48:16;;;;;;;9.82;3.17;;;24.00;1.00;;;;;;7372588;19;20017;-71
2023/10/13 09:50:51;;;;;;;7.82;3.35;;;24.20;1.00;;;;;;7374700;19;20014;-70
2023/10/13 09:53:19;;;;;;;9.68;3.25;;;24.20;1.00;;;;;;7371968;19;20014;-70
2023/10/13 09:55:54;;;;;;;11.13;3.20;;;24.30;1.00;;;;;;7373841;19;20031;-71
2023/10/13 09:58:28;;;;;;;12.55;2.90;;;24.40;1.00;;;;;;7372400;19;20026;-71
2023/10/13 10:01:07;;;;;;;8.73;3.13;;;24.50;1.00;;;;;;7374858;19;20010;-70
2023/10/13 10:03:50;;;;;;;7.97;2.72;;;24.60;1.00;;;;;;7375256;19;20014;-71
2023/10/13 10:06:39;;;;;;;8.33;3.10;;;24.70;1.00;;;;;;6862727;19;2004933;-71
2023/10/13 10:09:11;;;;;;;8.52;2.90;;;24.90;1.00;;;;;;7373429;19;20478;-71
2023/10/13 10:12:18;;;;;;;9.95;3.17;;;24.90;1.00;;;;;;7375230;19;20071;-72
2023/10/13 10:15:10;;;;;;;6.45;2.55;;;25.00;1.00;;;;;;7367985;19;20089;-71
2023/10/13 10:17:44;;;;;;;10.27;2.92;;;25.10;1.00;;;;;;7370582;19;20013;-71
2023/10/13 10:20:32;;;;;;;6.53;2.65;;;25.30;1.00;;;;;;7372048;19;20007;-72
2023/10/13 10:23:05;;;;;;;10.68;3.03;;;25.40;1.00;;;;;;7371335;19;20006;-71
2023/10/13 10:25:37;;;;;;;5.85;2.88;;;25.40;1.00;;;;;;7374328;19;20017;-72
2023/10/13 10:28:09;;;;;;;6.93;2.53;;;25.50;1.00;;;;;;7373275;19;20411;-70
2023/10/13 10:30:42;;;;;;;6.47;2.95;;;25.40;1.00;;;;;;7373205;19;20089;-70
2023/10/13 10:33:15;;;;;;;10.10;3.28;;;25.10;1.00;;;;;;7372774;19;20014;-71
2023/10/13 10:35:47;;;;;;;6.38;2.92;;;24.80;1.00;;;;;;7372301;19;20086;-70
2023/10/13 10:38:32;;;;;;;7.32;2.55;;;24.70;1.00;;;;;;7374020;19;20442;-71
2023/10/13 10:41:05;;;;;;;6.32;2.70;;;24.70;1.00;;;;;;7373056;19;20017;-72
2023/10/13 10:43:46;;;;;;;8.40;3.50;;;24.80;1.00;;;;;;7370659;19;20806;-71
2023/10/13 10:46:18;;;;;;;9.95;2.97;;;25.00;1.00;;;;;;7369584;19;20018;-70
2023/10/13 10:48:48;;;;;;;15.35;3.10;;;25.20;1.00;;;;;;7370435;19;20070;-71
2023/10/13 10:51:21;;;;;;;10.48;3.17;;;25.40;1.00;;;;;;7372772;19;20006;-72
2023/10/13 10:53:57;;;;;;;5.72;3.03;;;25.40;1.00;;;;;;7371574;19;20351;-71
2023/10/13 10:56:36;;;;;;;8.68;3.08;;;25.10;1.00;;;;;;7371430;19;20007;-71
2023/10/13 10:59:11;;;;;;;7.53;3.00;;;25.20;1.00;;;;;;7375298;19;20017;-70
2023/10/13 11:01:50;;;;;;;7.93;3.30;;;25.20;1.00;;;;;;7373437;19;20007;-71
2023/10/13 11:04:24;;;;;;;8.73;3.28;;;25.30;1.00;;;;;;7380951;19;20010;-71
2023/10/13 11:06:57;;;;;;;;;;;25.30;1.00;;;;;;7378316;19;20089;-71
2023/10/13 11:09:36;;;;;;;8.57;3.10;;;25.30;1.00;;;;;;7373295;19;19970;-71
2023/10/13 11:12:23;;;;;;;11.05;3.53;;;25.30;1.00;;;;;;7373972;19;20014;-71
2023/10/13 11:15:05;;;;;;;15.60;3.15;;;25.40;1.00;;;;;;6860079;19;2004982;-71
2023/10/13 11:17:48;;;;;;;9.48;3.10;;;25.40;1.00;;;;;;7372097;19;20007;-71
2023/10/13 11:20:25;;;;;;;7.10;3.00;;;25.40;1.00;;;;;;7369499;19;20018;-72
2023/10/13 11:22:55;;;;;;;10.82;3.05;;;25.70;1.00;;;;;;7371849;19;20812;-71
2023/10/13 11:25:34;;;;;;;13.52;3.20;;;26.00;1.00;;;;;;7371947;19;20090;-71
2023/10/13 11:28:17;;;;;;;8.43;2.88;;;26.20;1.00;;;;;;7371240;19;20474;-72
2023/10/13 11:30:49;;;;;;;7.63;3.42;;;26.10;1.00;;;;;;7369935;19;20014;-71
2023/10/13 11:33:23;;;;;;;6.13;2.78;;;25.70;1.00;;;;;;7373027;19;20062;-71
2023/10/13 11:36:06;;;;;;;9.35;3.45;;;25.50;1.00;;;;;;7371347;19;20010;-71
2023/10/13 11:38:43;;;;;;;6.35;2.50;;;25.60;1.00;;;;;;7373185;19;20502;-71
2023/10/13 11:41:15;;;;;;;7.75;3.03;;;25.50;1.00;;;;;;7371038;19;20048;-71
2023/10/13 11:49:31;;;;;;;4.40;2.47;;;25.50;1.00;;;;;;7369133;19;20017;-71
2023/10/13 11:54:46;;;;;;;;;;;26.30;1.00;;;;;;7367265;19;20015;-70
2023/10/13 11:57:21;;;;;;;7.53;2.67;;;26.50;1.00;;;;;;7366503;19;19966;-71
2023/10/13 12:00:24;;;;;;;8.25;2.97;;;26.60;1.00;;;;;;7368664;19;20007;-70
2023/10/13 12:05:49;;;;;;;9.00;3.40;;;26.70;1.00;;;;;;7375028;19;20007;-70
2023/10/13 12:08:32;;;;;;;8.95;2.90;;;26.90;1.00;;;;;;6865061;19;2005142;-71
2023/10/13 12:11:30;;;;;;;5.70;2.77;;;26.90;1.00;;;;;;7377685;19;20073;-72
2023/10/13 12:13:55;;;;;;;6.47;2.70;;;26.90;1.00;;;;;;6866281;19;2004702;-70
2023/10/13 12:16:34;;;;;;;5.80;2.90;;;27.10;1.00;;;;;;7376066;19;20014;-70
2023/10/13 12:19:09;;;;;;;6.15;2.50;;;27.20;1.00;;;;;;7378948;19;20659;-71
2023/10/13 12:21:43;;;;;;;5.90;2.90;;;27.00;1.00;;;;;;7376480;19;20003;-71
2023/10/13 12:24:22;;;;;;;7.72;3.00;;;27.10;1.00;;;;;;7379388;19;20017;-71
2023/10/13 12:26:55;;;;;;;7.20;2.58;;;27.20;1.00;;;;;;7375871;19;20013;-71
2023/10/13 12:29:35;;;;;;;7.03;3.00;;;27.20;1.00;;;;;;7378648;19;20018;-71
2023/10/13 12:32:09;;;;;;;5.30;2.70;;;27.10;1.00;;;;;;7377951;19;20087;-71
2023/10/13 12:37:49;;;;;;;7.45;3.40;;;27.20;1.00;;;;;;7374182;19;20083;-71
2023/10/13 12:51:40;;;;;;;5.28;2.50;;;27.30;1.00;;;;;;7375543;19;20086;-71
2023/10/13 12:54:19;;;;;;;10.50;3.10;;;27.20;1.00;;;;;;7375733;19;20458;-71
2023/10/13 12:56:56;;;;;;;8.65;2.70;;;27.20;1.00;;;;;;7374275;19;20097;-71
2023/10/13 12:59:28;;;;;;;9.75;3.20;;;27.00;1.00;;;;;;7376582;19;20011;-71
2023/10/13 13:02:06;;;;;;;6.40;2.92;;;26.80;1.00;;;;;;7375878;19;20346;-71
2023/10/13 13:04:37;;;;;;;7.53;3.15;;;26.90;1.00;;;;;;7379374;19;20002;-71
2023/10/13 13:07:13;;;;;;;6.13;2.65;;;27.00;1.00;;;;;;7375842;19;20066;-71
2023/10/13 13:09:43;;;;;;;7.50;2.75;;;27.00;1.00;;;;;;7375228;19;20086;-72
2023/10/13 13:12:14;;;;;;;8.50;2.70;;;27.20;1.00;;;;;;7375519;19;20025;-71
2023/10/13 13:14:46;;;;;;;7.93;2.88;;;27.20;1.00;;;;;;7377455;19;20486;-70
2023/10/13 13:17:18;;;;;;;7.35;2.50;;;27.40;1.00;;;;;;7375333;19;20014;-71
2023/10/13 13:19:48;;;;;;;6.75;3.05;;;27.40;1.00;;;;;;7375708;19;20015;-71
2023/10/13 13:22:20;;;;;;;8.05;3.03;;;27.60;1.00;;;;;;7376948;19;20045;-70
2023/10/13 13:24:52;;;;;;;6.35;2.70;;;27.60;1.00;;;;;;7376677;19;20035;-71
2023/10/13 13:27:24;;;;;;;3.95;2.30;;;27.60;1.00;;;;;;7375011;19;20021;-71
2023/10/13 13:29:54;;;;;;;7.85;2.88;;;27.70;1.00;;;;;;7375360;19;20006;-72
2023/10/13 13:32:29;;;;;;;13.18;2.78;;;27.80;1.00;;;;;;7376048;19;20035;-71
2023/10/13 13:35:04;;;;;;;6.60;2.28;;;27.80;1.00;;;;;;7376263;19;20092;-72
2023/10/13 13:37:34;;;;;;;7.22;2.40;;;27.70;1.00;;;;;;7376055;19;20072;-71
2023/10/13 13:40:16;;;;;;;5.65;2.65;;;27.60;1.00;;;;;;7374841;19;20015;-71
2023/10/13 13:42:46;;;;;;;4.70;2.80;;;27.70;1.00;;;;;;7373999;19;20027;-71
2023/10/13 13:45:27;;;;;;;12.60;2.90;;;27.60;1.00;;;;;;7375305;19;20007;-71
2023/10/13 13:48:00;;;;;;;5.65;2.47;;;27.60;1.00;;;;;;7373543;19;20370;-71
2023/10/13 13:50:39;;;;;;;11.57;3.30;;;27.80;1.00;;;;;;7376169;19;20790;-71
2023/10/13 13:53:11;;;;;;;9.75;2.50;;;27.70;1.00;;;;;;7376664;19;22140;-71
2023/10/13 13:55:41;;;;;;;10.75;2.50;;;27.80;1.00;;;;;;7373538;19;20054;-71
2023/10/13 13:58:12;;;;;;;10.63;2.72;;;27.90;1.00;;;;;;7373439;19;20017;-71
2023/10/13 14:00:48;;;;;;;7.38;2.53;;;27.80;1.00;;;;;;7375273;19;20086;-70
2023/10/13 14:03:30;;;;;;;5.63;2.60;;;27.70;1.00;;;;;;7373679;19;20010;-71
2023/10/13 14:06:03;;;;;;;5.20;2.47;;;27.80;1.00;;;;;;7372949;19;20032;-70
2023/10/13 14:08:34;;;;;;;6.93;2.90;;;27.60;1.00;;;;;;7373528;19;20038;-71
2023/10/13 14:11:21;;;;;;;6.85;2.50;;;27.40;1.00;;;;;;7373423;19;20007;-71
2023/10/13 14:13:49;;;;;;;6.22;3.00;;;27.60;1.00;;;;;;6862908;19;2004807;-71
2023/10/13 14:16:20;;;;;;;4.25;2.20;;;27.50;1.00;;;;;;7373279;19;20014;-70
2023/10/13 14:18:53;;;;;;;5.00;2.70;;;27.50;1.00;;;;;;7374675;19;20031;-71
2023/10/13 14:21:24;;;;;;;6.30;2.20;;;27.50;1.00;;;;;;7374417;19;20467;-72
2023/10/13 14:23:55;;;;;;;5.65;2.63;;;27.40;1.00;;;;;;7370973;19;20359;-71
2023/10/13 14:26:26;;;;;;;8.18;2.78;;;27.40;1.00;;;;;;7373541;19;20038;-71
2023/10/13 14:29:05;;;;;;;3.88;2.40;;;27.40;1.00;;;;;;7374184;19;20010;-71
2023/10/13 14:31:36;;;;;;;5.47;2.35;;;27.40;1.00;;;;;;7376350;19;20447;-72
2023/10/13 14:34:10;;;;;;;8.00;2.60;;;27.30;1.00;;;;;;7374657;19;20010;-70
2023/10/13 14:36:40;;;;;;;8.82;2.65;;;27.30;1.00;;;;;;7368880;19;20056;-71
2023/10/13 14:39:11;;;;;;;5.85;2.63;;;27.30;1.00;;;;;;7373299;19;20520;-71
2023/10/13 14:41:41;;;;;;;7.35;2.03;;;27.30;1.00;;;;;;7373234;19;20010;-71
2023/10/13 14:44:12;;;;;;;4.85;2.33;;;27.30;1.00;;;;;;7372654;19;20035;-71
2023/10/13 14:46:42;;;;;;;6.13;2.47;;;27.20;1.00;;;;;;7371870;19;20017;-71
2023/10/13 14:49:18;;;;;;;6.15;2.42;;;27.10;1.00;;;;;;7371377;19;20037;-71
2023/10/13 14:51:49;;;;;;;6.45;2.63;;;27.20;1.00;;;;;;7369238;19;20017;-71
2023/10/13 14:54:25;;;;;;;11.63;2.72;;;27.10;1.00;;;;;;7372995;19;20367;-71
2023/10/13 14:56:55;;;;;;;10.45;2.38;;;27.30;1.00;;;;;;7368412;19;20022;-70
2023/10/13 14:59:26;;;;;;;8.52;2.40;;;27.00;1.00;;;;;;7372998;19;20024;-70
2023/10/13 15:01:56;;;;;;;5.45;2.50;;;27.00;1.00;;;;;;7369435;19;20063;-70
2023/10/13 15:04:28;;;;;;;4.53;2.30;;;26.90;1.00;;;;;;7370084;19;20347;-71
2023/10/13 15:06:58;;;;;;;6.13;2.28;;;27.00;1.00;;;;;;7370945;19;20031;-71
2023/10/13 15:09:28;;;;;;;6.15;2.50;;;26.90;1.00;;;;;;7373458;19;20014;-71
2023/10/13 15:11:58;;;;;;;7.57;2.78;;;26.90;1.00;;;;;;7372369;19;20090;-71
2023/10/13 15:14:29;;;;;;;5.97;2.47;;;26.70;1.00;;;;;;7373612;19;20015;-71
2023/10/13 15:17:00;;;;;;;9.63;2.80;;;26.70;1.00;;;;;;7369539;19;20010;-70
2023/10/13 15:19:35;;;;;;;7.93;2.88;;;26.60;1.00;;;;;;7372906;19;20026;-70
2023/10/13 15:22:07;;;;;;;7.55;2.83;;;26.50;1.00;;;;;;7372262;19;20074;-70
2023/10/13 15:24:45;;;;;;;5.75;2.92;;;26.40;1.00;;;;;;7372037;19;20099;-70
2023/10/13 15:27:15;;;;;;;4.78;2.70;;;26.40;1.00;;;;;;7366854;19;20048;-71
2023/10/13 15:29:50;;;;;;;5.82;2.75;;;26.30;1.00;;;;;;7372094;19;20070;-70
2023/10/13 15:35:12;;;;;;;7.85;2.83;;;26.10;1.00;;;;;;7372149;19;20007;-70
2023/10/13 15:37:47;;;;;;;8.25;2.75;;;26.10;1.00;;;;;;7374107;19;20035;-70
2023/10/13 15:40:18;;;;;;;5.65;2.83;;;26.10;1.00;;;;;;7355385;19;20078;-71
2023/10/13 15:42:47;;;;;;;10.10;3.35;;;26.00;1.00;;;;;;7357485;19;20017;-71
2023/10/13 15:45:22;;;;;;;7.40;3.00;;;25.80;1.00;;;;;;7358151;19;20011;-71
2023/10/13 15:47:52;;;;;;;6.82;2.90;;;25.70;1.00;;;;;;7356347;19;20017;-71
2023/10/13 15:50:29;;;;;;;4.32;2.50;;;25.60;1.00;;;;;;7355699;19;20011;-71
2023/10/13 15:53:01;;;;;;;5.95;2.70;;;25.50;1.00;;;;;;7357277;19;20013;-70
2023/10/13 15:55:31;;;;;;;6.78;3.20;;;25.50;1.00;;;;;;7356112;19;20010;-71